createdAt,value
2022-08-19T00:02:00.750Z,12.65
2022-08-19T00:07:05.078Z,12.03
2022-08-19T00:12:07.316Z,11.75
2022-08-19T00:17:10.070Z,11.77
2022-08-19T00:22:12.104Z,12.43
2022-08-19T00:27:25.698Z,12.27
2022-08-19T00:32:29.148Z,12.27
2022-08-19T00:37:34.068Z,12.15
2022-08-19T00:42:36.179Z,11.77
2022-08-19T00:47:38.209Z,11.82
2022-08-19T00:52:46.594Z,12.55
2022-08-19T00:57:55.381Z,12.55
2022-08-19T01:02:57.889Z,12.75
2022-08-19T01:08:02.633Z,13.27
2022-08-19T01:13:05.815Z,13.20
2022-08-19T01:18:10.966Z,13.73
2022-08-19T01:23:13.530Z,13.48
2022-08-19T01:28:18.820Z,13.80
2022-08-19T01:33:25.204Z,13.43
2022-08-19T01:38:29.435Z,13.80
2022-08-19T01:43:31.493Z,13.68
2022-08-19T01:48:42.149Z,13.23
2022-08-19T01:53:46.606Z,13.48
2022-08-19T01:58:57.384Z,14.45
2022-08-19T02:04:01.890Z,13.77
2022-08-19T02:09:05.591Z,14.13
2022-08-19T02:14:08.840Z,13.68
2022-08-19T02:24:13.450Z,15.10
2022-08-19T02:29:15.484Z,19.17
2022-08-19T02:34:18.416Z,19.37
2022-08-19T02:39:20.632Z,17.85
2022-08-19T02:44:31.390Z,18.10
2022-08-19T02:49:34.702Z,17.05
2022-08-19T02:54:37.542Z,17.02
2022-08-19T02:59:40.823Z,17.02
2022-08-19T03:04:43.245Z,16.65
2022-08-19T03:09:45.774Z,16.93
2022-08-19T03:14:47.851Z,15.97
2022-08-19T03:19:49.901Z,15.55
2022-08-19T03:24:52.108Z,15.30
2022-08-19T03:29:54.146Z,14.68
2022-08-19T03:34:56.588Z,15.57
2022-08-19T03:39:58.725Z,15.48
2022-08-19T03:45:01.126Z,15.45
2022-08-19T03:50:03.450Z,15.53
2022-08-19T03:55:06.045Z,16.03
2022-08-19T04:00:12.886Z,16.15
2022-08-19T04:05:16.118Z,16.00
2022-08-19T04:10:18.476Z,15.88
2022-08-19T04:15:21.844Z,15.87
2022-08-19T04:20:23.932Z,15.65
2022-08-19T04:25:25.976Z,16.20
2022-08-19T04:30:27.981Z,16.65
2022-08-19T04:35:42.472Z,15.55
2022-08-19T04:41:07.967Z,16.25
2022-08-19T04:46:12.075Z,14.23
2022-08-19T04:51:34.952Z,13.48
2022-08-19T04:56:37.133Z,14.57
2022-08-19T05:01:39.206Z,13.77
2022-08-19T05:06:41.236Z,13.50
2022-08-19T05:11:43.886Z,14.50
2022-08-19T05:16:46.005Z,14.38
2022-08-19T05:22:06.618Z,13.77
2022-08-19T05:27:08.757Z,13.90
2022-08-19T05:32:11.513Z,15.20
2022-08-19T05:37:13.897Z,13.23
2022-08-19T05:42:16.581Z,12.80
2022-08-19T05:47:20.988Z,12.18
2022-08-19T05:52:26.055Z,11.85
2022-08-19T05:57:30.146Z,12.20
2022-08-19T06:02:32.396Z,11.77
2022-08-19T06:12:37.404Z,11.57
2022-08-19T06:17:40.264Z,11.65
2022-08-19T06:28:11.577Z,11.13
2022-08-19T06:33:07.535Z,10.90
2022-08-19T06:38:10.583Z,10.88
2022-08-19T06:48:16.292Z,10.30
2022-08-19T06:53:20.347Z,11.25
2022-08-19T06:58:23.617Z,9.77
2022-08-19T07:03:25.632Z,10.80
2022-08-19T07:08:29.248Z,10.50
2022-08-19T07:13:33.618Z,10.23
2022-08-19T07:18:36.177Z,9.10
2022-08-19T07:28:51.400Z,9.98
2022-08-19T07:33:57.475Z,10.05
2022-08-19T07:39:02.858Z,9.70
2022-08-19T07:44:06.349Z,9.38
2022-08-19T07:49:14.605Z,9.50
2022-08-19T07:54:17.164Z,9.75
2022-08-19T07:59:20.646Z,7.82
2022-08-19T08:04:41.631Z,8.63
2022-08-19T08:09:44.872Z,8.60
2022-08-19T08:14:56.145Z,8.73
2022-08-19T08:19:58.593Z,8.80
2022-08-19T08:25:27.676Z,9.00
2022-08-19T08:30:36.914Z,8.90
2022-08-19T08:35:42.781Z,8.85
2022-08-19T08:40:52.412Z,8.55
2022-08-19T08:46:08.033Z,8.93
2022-08-19T08:51:20.285Z,8.32
2022-08-19T08:56:23.564Z,8.30
2022-08-19T09:01:30.309Z,8.30
2022-08-19T09:06:45.010Z,7.90
2022-08-19T09:12:18.896Z,7.32
2022-08-19T09:17:36.284Z,7.10
2022-08-19T09:22:40.076Z,7.25
2022-08-19T09:27:43.702Z,8.10
2022-08-19T09:32:46.622Z,7.78
2022-08-19T09:37:50.020Z,7.72
2022-08-19T09:43:09.969Z,8.18
2022-08-19T09:48:18.921Z,7.45
2022-08-19T09:53:25.501Z,8.77
2022-08-19T09:58:28.933Z,8.27
2022-08-19T10:03:32.556Z,8.13
2022-08-19T10:08:37.442Z,8.57
2022-08-19T10:13:39.722Z,9.65
2022-08-19T10:18:45.058Z,9.20
2022-08-19T10:23:53.520Z,11.07
2022-08-19T10:28:56.344Z,9.05
2022-08-19T10:34:00.433Z,9.43
2022-08-19T10:39:09.744Z,8.88
2022-08-19T10:44:13.833Z,9.65
2022-08-19T10:49:16.221Z,8.35
2022-08-19T10:54:31.048Z,9.07
2022-08-19T10:59:36.511Z,8.90
2022-08-19T11:04:40.225Z,8.40
2022-08-19T11:09:43.930Z,8.50
2022-08-19T11:14:46.017Z,8.63
2022-08-19T11:19:50.047Z,8.63
2022-08-19T11:24:52.623Z,8.35
2022-08-19T11:29:55.233Z,8.85
2022-08-19T11:34:57.239Z,8.70
2022-08-19T11:39:59.636Z,8.13
2022-08-19T11:45:04.065Z,7.97
2022-08-19T11:50:06.948Z,7.78
2022-08-19T11:55:09.570Z,7.78
2022-08-19T12:00:13.940Z,8.45
2022-08-19T12:05:16.089Z,7.93
2022-08-19T12:10:18.953Z,7.78
2022-08-19T12:15:22.344Z,7.53
2022-08-19T12:20:25.875Z,7.72
2022-08-19T12:25:28.759Z,7.57
2022-08-19T12:30:33.547Z,6.68
2022-08-19T12:35:35.661Z,7.20
2022-08-19T12:50:48.487Z,7.07
2022-08-19T12:55:59.237Z,6.13
2022-08-19T13:01:07.565Z,6.28
2022-08-19T13:06:12.165Z,6.53
2022-08-19T13:11:18.657Z,6.35
2022-08-19T13:16:27.799Z,6.47
2022-08-19T13:21:31.287Z,6.35
2022-08-19T13:26:37.135Z,6.07
2022-08-19T13:32:00.112Z,5.97
2022-08-19T13:37:04.399Z,6.65
2022-08-19T13:42:08.253Z,6.20
2022-08-19T13:47:13.628Z,6.15
2022-08-19T13:52:15.637Z,5.63
2022-08-19T14:02:20.116Z,5.65
2022-08-19T14:07:24.652Z,5.50
2022-08-19T14:12:28.428Z,5.22
2022-08-19T14:17:31.214Z,5.75
2022-08-19T14:22:33.515Z,5.45
2022-08-19T14:27:36.222Z,5.28
2022-08-19T14:32:38.376Z,5.05
2022-08-19T14:37:45.290Z,4.50
2022-08-19T14:42:48.353Z,5.32
2022-08-19T14:47:50.623Z,4.75
2022-08-19T14:53:00.561Z,5.18
2022-08-19T14:58:02.779Z,5.75
2022-08-19T15:03:07.673Z,5.30
2022-08-19T15:08:09.811Z,5.65
2022-08-19T15:13:11.788Z,5.28
2022-08-19T15:23:16.788Z,5.53
2022-08-19T15:28:18.884Z,5.93
2022-08-19T15:38:23.768Z,5.97
2022-08-19T15:43:25.870Z,5.90
2022-08-19T15:48:28.121Z,5.25
2022-08-19T15:58:50.377Z,5.23
2022-08-19T16:04:14.701Z,5.72
2022-08-19T16:09:24.936Z,5.10
2022-08-19T16:14:30.137Z,5.88
2022-08-19T16:19:33.309Z,5.00
2022-08-19T16:24:38.307Z,5.07
2022-08-19T16:29:41.084Z,4.88
2022-08-19T16:34:43.915Z,4.97
2022-08-19T16:39:45.995Z,5.68
2022-08-19T16:44:47.958Z,7.32
2022-08-19T16:54:57.475Z,6.13
2022-08-19T17:05:02.027Z,5.10
2022-08-19T17:10:05.263Z,5.65
2022-08-19T17:15:11.169Z,5.45
2022-08-19T17:20:13.434Z,5.20
2022-08-19T17:25:15.844Z,5.97
2022-08-19T17:30:19.516Z,5.28
2022-08-19T17:35:24.179Z,5.70
2022-08-19T17:40:26.821Z,5.60
2022-08-19T17:45:33.389Z,5.88
2022-08-19T17:50:36.616Z,6.53
2022-08-19T17:55:38.875Z,6.47
2022-08-19T18:00:53.724Z,6.18
2022-08-19T18:05:59.644Z,5.88
2022-08-19T18:11:01.774Z,5.80
2022-08-19T18:16:07.748Z,6.43
2022-08-19T18:21:10.691Z,5.85
2022-08-19T18:26:13.128Z,6.63
2022-08-19T18:31:15.090Z,6.85
2022-08-19T18:36:27.917Z,5.87
2022-08-19T18:41:57.437Z,6.13
2022-08-19T18:47:37.901Z,5.72
2022-08-19T18:52:40.216Z,5.95
2022-08-19T18:57:42.168Z,5.20
2022-08-19T19:02:45.362Z,5.60
2022-08-19T19:07:48.653Z,5.65
2022-08-19T19:12:50.914Z,6.15
2022-08-19T19:17:52.846Z,6.45
2022-08-19T19:22:56.073Z,6.60
2022-08-19T19:28:00.704Z,5.88
2022-08-19T19:33:03.342Z,6.10
2022-08-19T19:38:05.378Z,6.05
2022-08-19T19:43:08.279Z,6.20
2022-08-19T19:48:13.710Z,6.40
2022-08-19T19:53:15.954Z,6.35
2022-08-19T19:58:18.678Z,6.53
2022-08-19T20:03:25.694Z,7.80
2022-08-19T20:08:46.701Z,5.93
2022-08-19T20:13:48.664Z,6.20
2022-08-19T20:18:50.792Z,5.70
2022-08-19T20:24:09.226Z,6.18
2022-08-19T20:29:37.915Z,5.35
2022-08-19T20:34:34.253Z,5.33
2022-08-19T20:39:36.494Z,5.87
2022-08-19T20:44:38.751Z,5.65
2022-08-19T20:49:40.989Z,6.70
2022-08-19T20:54:43.150Z,5.35
2022-08-19T20:59:45.212Z,6.37
2022-08-19T21:04:48.310Z,5.70
2022-08-19T21:09:52.135Z,6.20
2022-08-19T21:14:54.432Z,6.13
2022-08-19T21:19:56.425Z,5.88
2022-08-19T21:24:58.406Z,6.03
2022-08-19T21:30:00.541Z,6.13
2022-08-19T21:35:02.766Z,6.10
2022-08-19T21:40:06.357Z,6.40
2022-08-19T21:45:08.930Z,6.15
2022-08-19T21:50:11.976Z,5.95
2022-08-19T21:55:15.572Z,5.20
2022-08-19T22:00:20.963Z,6.05
2022-08-19T22:05:24.621Z,5.55
2022-08-19T22:10:33.794Z,5.50
2022-08-19T22:15:35.789Z,5.55
2022-08-19T22:20:37.820Z,5.10
2022-08-19T22:25:44.749Z,5.87
2022-08-19T22:30:51.120Z,6.78
2022-08-19T22:35:54.017Z,5.43
2022-08-19T22:40:56.535Z,5.28
2022-08-19T22:45:59.795Z,5.93
2022-08-19T22:51:20.109Z,5.35
2022-08-19T22:56:22.544Z,5.50
2022-08-19T23:01:29.874Z,5.73
2022-08-19T23:06:33.726Z,5.05
2022-08-19T23:11:42.128Z,4.97
2022-08-19T23:16:50.536Z,5.40
2022-08-19T23:21:53.583Z,5.45
2022-08-19T23:27:14.014Z,5.50
2022-08-19T23:32:17.369Z,5.70
2022-08-19T23:37:19.404Z,5.57
2022-08-19T23:42:21.455Z,5.22
2022-08-19T23:47:23.758Z,5.50
2022-08-19T23:52:28.409Z,6.20
2022-08-19T23:57:30.669Z,5.78
